createdAt,value
2019-05-30T00:00:11.386Z,1.07
2019-05-30T00:02:34.258Z,1.57
2019-05-30T00:05:07.001Z,1.50
2019-05-30T00:07:38.108Z,1.40
2019-05-30T00:10:09.628Z,1.37
2019-05-30T00:12:40.697Z,1.30
2019-05-30T00:15:11.966Z,1.20
2019-05-30T00:17:42.833Z,1.10
2019-05-30T00:20:14.384Z,1.20
2019-05-30T00:22:45.288Z,1.20
2019-05-30T00:25:16.259Z,1.50
2019-05-30T00:27:47.043Z,1.10
2019-05-30T00:30:24.490Z,1.05
2019-05-30T00:32:51.053Z,1.03
2019-05-30T00:35:21.904Z,1.10
2019-05-30T00:37:53.053Z,1.42
2019-05-30T00:40:23.832Z,1.23
2019-05-30T00:42:55.888Z,2.00
2019-05-30T00:45:27.863Z,1.30
2019-05-30T00:47:58.675Z,1.40
2019-05-30T00:50:29.739Z,1.03
2019-05-30T00:53:00.782Z,1.00
2019-05-30T00:55:31.665Z,1.20
2019-05-30T00:58:02.820Z,1.23
2019-05-30T01:00:43.505Z,1.13
2019-05-30T01:03:08.446Z,1.13
2019-05-30T01:05:38.793Z,1.07
2019-05-30T01:08:09.472Z,1.33
2019-05-30T01:10:40.377Z,1.27
2019-05-30T01:13:11.279Z,1.37
2019-05-30T01:15:42.667Z,1.40
2019-05-30T01:18:13.538Z,1.23
2019-05-30T01:20:45.022Z,1.50
2019-05-30T01:23:15.838Z,1.10
2019-05-30T01:25:46.729Z,1.37
2019-05-30T01:28:17.620Z,1.20
2019-05-30T01:30:59.464Z,1.13
2019-05-30T01:33:21.195Z,1.20
2019-05-30T01:35:52.208Z,1.37
2019-05-30T01:38:24.302Z,1.32
2019-05-30T01:40:55.183Z,1.70
2019-05-30T01:43:26.080Z,1.73
2019-05-30T01:45:58.050Z,1.40
2019-05-30T01:48:28.852Z,1.27
2019-05-30T01:51:00.329Z,1.90
2019-05-30T01:53:31.192Z,1.77
2019-05-30T01:56:02.759Z,1.63
2019-05-30T01:58:33.910Z,1.83
2019-05-30T02:01:18.992Z,2.42
2019-05-30T02:03:37.804Z,1.70
2019-05-30T02:06:09.389Z,2.60
2019-05-30T02:08:40.617Z,2.53
2019-05-30T02:11:11.483Z,1.70
2019-05-30T02:13:42.304Z,3.90
2019-05-30T02:16:13.228Z,2.00
2019-05-30T02:18:44.050Z,2.40
2019-05-30T02:21:15.371Z,3.65
2019-05-30T02:23:46.200Z,2.53
2019-05-30T02:26:17.051Z,2.20
2019-05-30T02:28:47.822Z,2.53
2019-05-30T02:31:37.647Z,3.00
2019-05-30T02:33:51.509Z,2.73
2019-05-30T02:36:22.758Z,2.65
2019-05-30T02:38:53.651Z,4.23
2019-05-30T02:41:24.657Z,3.07
2019-05-30T02:43:56.264Z,4.40
2019-05-30T02:46:27.053Z,2.90
2019-05-30T02:48:59.707Z,3.17
2019-05-30T02:51:30.520Z,3.30
2019-05-30T02:54:01.655Z,3.40
2019-05-30T02:56:33.008Z,3.80
2019-05-30T02:59:05.955Z,3.93
2019-05-30T03:01:36.615Z,3.43
2019-05-30T03:04:08.679Z,4.43
2019-05-30T03:06:40.406Z,3.00
2019-05-30T03:09:12.956Z,4.83
2019-05-30T03:11:43.992Z,4.23
2019-05-30T03:14:19.225Z,3.15
2019-05-30T03:16:47.962Z,5.13
2019-05-30T03:19:19.000Z,6.00
2019-05-30T03:21:50.239Z,5.73
2019-05-30T03:24:21.455Z,4.00
2019-05-30T03:26:52.312Z,4.00
2019-05-30T03:29:23.196Z,4.17
2019-05-30T03:31:54.887Z,3.67
2019-05-30T03:34:28.851Z,4.13
2019-05-30T03:36:58.243Z,4.43
2019-05-30T03:39:29.008Z,4.30
2019-05-30T03:42:00.089Z,4.20
2019-05-30T03:44:31.023Z,3.97
2019-05-30T03:47:03.942Z,3.90
2019-05-30T03:49:37.306Z,5.73
2019-05-30T03:52:10.612Z,5.90
2019-05-30T03:54:41.227Z,4.60
2019-05-30T03:57:16.125Z,4.22
2019-05-30T03:59:52.138Z,4.90
2019-05-30T04:02:56.316Z,4.63
2019-05-30T04:05:16.241Z,4.28
2019-05-30T04:07:49.337Z,4.63
2019-05-30T04:10:21.413Z,3.83
2019-05-30T04:13:07.143Z,4.20
2019-05-30T04:15:38.164Z,4.00
2019-05-30T04:18:09.602Z,4.23
2019-05-30T04:20:41.877Z,3.97
2019-05-30T04:23:14.670Z,3.93
2019-05-30T04:25:45.210Z,4.03
2019-05-30T04:28:18.062Z,3.83
2019-05-30T04:30:48.627Z,3.63
2019-05-30T04:33:32.731Z,4.15
2019-05-30T04:35:53.324Z,3.90
2019-05-30T04:38:24.305Z,4.10
2019-05-30T04:40:55.318Z,4.40
2019-05-30T04:43:26.128Z,5.13
2019-05-30T04:45:56.992Z,4.97
2019-05-30T04:48:27.935Z,3.20
2019-05-30T04:50:58.773Z,3.90
2019-05-30T04:53:29.746Z,4.13
2019-05-30T04:56:00.784Z,3.80
2019-05-30T04:58:31.609Z,3.73
2019-05-30T05:01:02.471Z,4.10
2019-05-30T05:03:44.980Z,4.27
2019-05-30T05:06:06.234Z,4.23
2019-05-30T05:08:37.232Z,3.90
2019-05-30T05:11:12.272Z,3.50
2019-05-30T05:13:40.543Z,4.33
2019-05-30T05:16:23.155Z,3.70
2019-05-30T05:18:44.044Z,3.73
2019-05-30T05:21:14.888Z,3.83
2019-05-30T05:23:45.711Z,4.00
2019-05-30T05:26:17.425Z,3.70
2019-05-30T05:28:48.238Z,3.50
2019-05-30T05:31:20.322Z,3.67
2019-05-30T05:33:56.589Z,3.30
2019-05-30T05:36:25.186Z,4.33
2019-05-30T05:38:56.165Z,3.33
2019-05-30T05:41:28.636Z,3.80
2019-05-30T05:43:59.593Z,3.33
2019-05-30T05:46:30.474Z,3.17
2019-05-30T05:49:01.409Z,2.97
2019-05-30T05:51:32.239Z,3.43
2019-05-30T05:54:03.201Z,3.53
2019-05-30T05:56:34.130Z,3.53
2019-05-30T05:59:05.277Z,3.17
2019-05-30T06:01:36.084Z,3.50
2019-05-30T06:04:12.952Z,2.83
2019-05-30T06:06:39.435Z,3.10
2019-05-30T06:09:10.267Z,2.95
2019-05-30T06:11:41.175Z,3.13
2019-05-30T06:14:12.148Z,2.77
2019-05-30T06:16:42.791Z,2.97
2019-05-30T06:19:13.497Z,2.50
2019-05-30T06:21:53.905Z,2.60
2019-05-30T06:24:18.070Z,3.08
2019-05-30T06:26:48.869Z,2.70
2019-05-30T06:29:20.115Z,2.53
2019-05-30T06:31:51.031Z,3.30
2019-05-30T06:34:33.498Z,2.50
2019-05-30T06:36:55.943Z,2.57
2019-05-30T06:39:29.656Z,2.50
2019-05-30T06:42:01.001Z,2.73
2019-05-30T06:44:32.872Z,2.30
2019-05-30T06:47:03.968Z,2.40
2019-05-30T06:49:34.871Z,2.30
2019-05-30T06:52:05.885Z,2.67
2019-05-30T06:54:36.747Z,2.40
2019-05-30T06:57:07.735Z,2.20
2019-05-30T06:59:38.825Z,2.17
2019-05-30T07:02:10.794Z,2.20
2019-05-30T07:04:51.732Z,2.60
2019-05-30T07:07:14.353Z,2.30
2019-05-30T07:09:45.499Z,2.40
2019-05-30T07:12:16.570Z,2.57
2019-05-30T07:14:47.360Z,2.20
2019-05-30T07:17:18.228Z,2.20
2019-05-30T07:19:49.303Z,2.17
2019-05-30T07:22:20.205Z,2.07
2019-05-30T07:24:51.148Z,2.20
2019-05-30T07:27:21.958Z,2.33
2019-05-30T07:29:52.939Z,2.20
2019-05-30T07:32:25.806Z,2.27
2019-05-30T07:35:05.999Z,1.97
2019-05-30T07:37:30.290Z,2.10
2019-05-30T07:40:01.719Z,1.67
2019-05-30T07:42:33.175Z,1.90
2019-05-30T07:45:04.496Z,2.70
2019-05-30T07:47:35.396Z,2.40
2019-05-30T07:50:07.846Z,2.37
2019-05-30T07:52:39.165Z,2.17
2019-05-30T07:55:10.772Z,2.60
2019-05-30T07:57:42.736Z,3.07
2019-05-30T08:00:14.726Z,2.52
2019-05-30T08:02:46.125Z,2.60
2019-05-30T08:05:24.062Z,2.67
2019-05-30T08:07:49.867Z,2.75
2019-05-30T08:10:21.215Z,2.67
2019-05-30T08:12:51.942Z,2.97
2019-05-30T08:15:24.160Z,2.50
2019-05-30T08:17:55.280Z,3.13
2019-05-30T08:20:26.054Z,2.63
2019-05-30T08:22:57.097Z,2.60
2019-05-30T08:25:28.014Z,2.90
2019-05-30T08:27:58.903Z,3.03
2019-05-30T08:30:30.311Z,3.30
2019-05-30T08:33:01.474Z,2.53
2019-05-30T08:35:43.615Z,2.80
2019-05-30T08:38:05.899Z,3.10
2019-05-30T08:40:37.712Z,2.93
2019-05-30T08:43:08.889Z,3.07
2019-05-30T08:45:40.048Z,2.33
2019-05-30T08:48:11.008Z,2.52
2019-05-30T08:50:44.621Z,2.57
2019-05-30T08:53:14.399Z,2.65
2019-05-30T08:55:45.525Z,3.17
2019-05-30T08:58:16.509Z,2.87
2019-05-30T09:00:47.875Z,3.50
2019-05-30T09:03:18.698Z,2.65
2019-05-30T09:06:02.607Z,3.23
2019-05-30T09:08:22.389Z,2.70
2019-05-30T09:10:53.379Z,2.93
2019-05-30T09:13:24.208Z,2.70
2019-05-30T09:15:55.260Z,3.37
2019-05-30T09:18:26.286Z,2.73
2019-05-30T09:20:57.057Z,3.13
2019-05-30T09:23:27.999Z,3.40
2019-05-30T09:25:58.885Z,2.80
2019-05-30T09:28:30.001Z,2.80
2019-05-30T09:31:00.942Z,3.30
2019-05-30T09:33:32.026Z,2.57
2019-05-30T09:36:12.806Z,2.70
2019-05-30T09:38:35.647Z,3.10
2019-05-30T09:41:06.522Z,2.77
2019-05-30T09:43:41.584Z,2.50
2019-05-30T09:46:13.168Z,3.33
2019-05-30T09:48:44.787Z,2.33
2019-05-30T09:51:15.837Z,3.50
2019-05-30T09:53:48.244Z,2.80
2019-05-30T09:56:19.163Z,3.70
2019-05-30T09:58:50.140Z,2.73
2019-05-30T10:01:21.073Z,3.40
2019-05-30T10:03:52.316Z,2.90
2019-05-30T10:06:29.435Z,3.00
2019-05-30T10:08:56.462Z,3.90
2019-05-30T10:11:27.325Z,3.37
2019-05-30T10:13:58.303Z,3.20
2019-05-30T10:16:29.121Z,3.40
2019-05-30T10:19:00.273Z,3.43
2019-05-30T10:21:31.302Z,3.67
2019-05-30T10:24:02.308Z,4.17
2019-05-30T10:26:33.134Z,4.20
2019-05-30T10:29:03.992Z,3.63
2019-05-30T10:31:34.981Z,3.63
2019-05-30T10:34:06.107Z,3.90
2019-05-30T10:36:44.428Z,3.87
2019-05-30T10:39:09.969Z,3.90
2019-05-30T10:41:40.845Z,3.30
2019-05-30T10:44:11.716Z,3.22
2019-05-30T10:46:42.536Z,3.60
2019-05-30T10:49:13.762Z,3.80
2019-05-30T10:51:46.138Z,3.87
2019-05-30T10:54:17.083Z,3.08
2019-05-30T10:56:48.478Z,3.93
2019-05-30T10:59:20.482Z,3.87
2019-05-30T11:01:52.888Z,4.17
2019-05-30T11:04:24.091Z,3.90
2019-05-30T11:07:11.449Z,3.90
2019-05-30T11:09:44.686Z,3.90
2019-05-30T11:12:15.493Z,3.73
2019-05-30T11:14:46.836Z,3.70
2019-05-30T11:17:18.961Z,3.90
2019-05-30T11:19:50.002Z,4.57
2019-05-30T11:22:21.059Z,3.47
2019-05-30T11:24:52.744Z,4.23
2019-05-30T11:27:23.690Z,3.43
2019-05-30T11:29:54.810Z,4.30
2019-05-30T11:32:25.882Z,3.67
2019-05-30T11:34:57.435Z,3.57
2019-05-30T11:37:28.334Z,3.80
2019-05-30T11:39:59.492Z,4.40
2019-05-30T11:42:30.289Z,3.70
2019-05-30T11:45:01.147Z,3.93
2019-05-30T11:47:32.058Z,3.70
2019-05-30T11:50:03.048Z,3.93
2019-05-30T11:52:33.871Z,4.27
2019-05-30T11:55:05.933Z,4.00
2019-05-30T11:57:36.815Z,3.90
2019-05-30T12:00:07.912Z,4.03
2019-05-30T12:02:38.755Z,4.47
2019-05-30T12:05:10.435Z,4.07
2019-05-30T12:07:41.365Z,3.97
2019-05-30T12:10:12.599Z,4.30
2019-05-30T12:12:43.671Z,3.70
2019-05-30T12:15:15.012Z,3.62
2019-05-30T12:17:46.005Z,4.47
2019-05-30T12:20:17.561Z,4.22
2019-05-30T12:22:48.346Z,4.10
2019-05-30T12:25:19.499Z,4.70
2019-05-30T12:27:50.407Z,4.40
2019-05-30T12:30:21.693Z,4.30
2019-05-30T12:32:52.705Z,4.20
2019-05-30T12:35:23.994Z,3.85
2019-05-30T12:37:59.669Z,4.70
2019-05-30T12:40:27.826Z,4.10
2019-05-30T12:42:59.929Z,4.70
2019-05-30T12:45:31.401Z,5.23
2019-05-30T12:48:04.168Z,4.67
2019-05-30T12:50:35.244Z,4.23
2019-05-30T12:53:06.176Z,4.80
2019-05-30T12:55:38.181Z,4.80
2019-05-30T12:58:08.887Z,4.60
2019-05-30T13:00:41.691Z,5.23
2019-05-30T13:03:12.796Z,4.28
2019-05-30T13:05:43.754Z,4.57
2019-05-30T13:08:21.516Z,5.47
2019-05-30T13:10:47.728Z,4.57
2019-05-30T13:13:18.884Z,4.60
2019-05-30T13:15:49.939Z,5.63
2019-05-30T13:18:20.891Z,5.30
2019-05-30T13:20:51.944Z,4.43
2019-05-30T13:23:22.752Z,3.97
2019-05-30T13:25:53.715Z,4.97
2019-05-30T13:28:25.686Z,4.50
2019-05-30T13:30:58.047Z,4.70
2019-05-30T13:33:29.204Z,4.80
2019-05-30T13:36:01.046Z,4.03
2019-05-30T13:38:32.655Z,3.97
2019-05-30T13:41:03.662Z,4.37
2019-05-30T13:43:34.866Z,4.13
2019-05-30T13:46:06.385Z,4.37
2019-05-30T13:48:37.864Z,4.20
2019-05-30T13:51:09.214Z,3.90
2019-05-30T13:53:40.359Z,4.27
2019-05-30T13:56:14.109Z,4.10
2019-05-30T13:58:45.256Z,4.30
2019-05-30T14:01:16.659Z,4.07
2019-05-30T14:03:47.676Z,4.10
2019-05-30T14:06:18.580Z,4.73
2019-05-30T14:08:50.764Z,5.00
2019-05-30T14:11:22.103Z,4.17
2019-05-30T14:13:53.025Z,4.60
2019-05-30T14:16:24.346Z,4.00
2019-05-30T14:18:55.328Z,3.57
2019-05-30T14:21:26.243Z,5.00
2019-05-30T14:23:57.253Z,4.47
2019-05-30T14:26:28.197Z,4.30
2019-05-30T14:28:59.461Z,5.50
2019-05-30T14:31:31.118Z,4.93
2019-05-30T14:34:02.256Z,4.60
2019-05-30T14:36:34.759Z,4.47
2019-05-30T14:39:08.887Z,4.33
2019-05-30T14:41:40.337Z,4.17
2019-05-30T14:44:11.337Z,4.40
2019-05-30T14:46:42.860Z,4.00
2019-05-30T14:49:13.892Z,4.97
2019-05-30T14:51:45.106Z,4.87
2019-05-30T14:54:17.501Z,5.67
2019-05-30T14:56:49.919Z,4.27
2019-05-30T14:59:20.775Z,4.05
2019-05-30T15:01:52.803Z,4.73
2019-05-30T15:04:23.730Z,4.73
2019-05-30T15:06:55.946Z,4.70
2019-05-30T15:09:26.882Z,4.50
2019-05-30T15:11:59.778Z,4.33
2019-05-30T15:14:31.423Z,5.42
2019-05-30T15:17:02.347Z,4.30
2019-05-30T15:19:33.111Z,4.80
2019-05-30T15:22:05.468Z,4.00
2019-05-30T15:24:36.504Z,4.37
2019-05-30T15:27:07.902Z,4.60
2019-05-30T15:29:40.905Z,4.13
2019-05-30T15:32:12.360Z,4.30
2019-05-30T15:34:44.052Z,3.87
2019-05-30T15:37:15.116Z,4.33
2019-05-30T15:39:46.240Z,5.28
2019-05-30T15:42:17.762Z,4.17
2019-05-30T15:44:48.496Z,4.50
2019-05-30T15:47:19.396Z,4.13
2019-05-30T15:49:52.387Z,4.13
2019-05-30T15:52:22.931Z,5.13
2019-05-30T15:54:54.159Z,5.17
2019-05-30T15:57:24.987Z,5.42
2019-05-30T15:59:58.105Z,4.67
2019-05-30T16:02:33.603Z,5.00
2019-05-30T16:05:06.068Z,4.97
2019-05-30T16:07:37.079Z,4.50
2019-05-30T16:10:10.711Z,4.83
2019-05-30T16:12:41.913Z,5.20
2019-05-30T16:15:13.456Z,5.35
2019-05-30T16:17:44.348Z,5.07
2019-05-30T16:20:16.552Z,4.50
2019-05-30T16:22:48.088Z,4.30
2019-05-30T16:25:19.717Z,4.63
2019-05-30T16:27:50.842Z,4.63
2019-05-30T16:30:25.227Z,4.17
2019-05-30T16:32:54.885Z,5.00
2019-05-30T16:35:26.475Z,4.10
2019-05-30T16:37:57.506Z,4.73
2019-05-30T16:40:28.394Z,4.07
2019-05-30T16:42:59.191Z,4.30
2019-05-30T16:45:30.199Z,4.47
2019-05-30T16:48:01.304Z,4.77
2019-05-30T16:50:32.182Z,4.10
2019-05-30T16:53:03.250Z,4.07
2019-05-30T16:55:34.088Z,4.57
2019-05-30T16:58:05.549Z,4.62
2019-05-30T17:00:37.557Z,4.67
2019-05-30T17:03:08.716Z,4.20
2019-05-30T17:05:39.619Z,4.50
2019-05-30T17:08:10.595Z,4.53
2019-05-30T17:10:41.968Z,4.87
2019-05-30T17:13:13.088Z,4.27
2019-05-30T17:15:44.121Z,5.07
2019-05-30T17:18:16.025Z,5.22
2019-05-30T17:20:47.318Z,4.90
2019-05-30T17:23:18.669Z,4.70
2019-05-30T17:25:49.712Z,4.90
2019-05-30T17:28:20.580Z,4.87
2019-05-30T17:30:51.605Z,4.47
2019-05-30T17:33:23.938Z,5.53
2019-05-30T17:35:55.336Z,5.28
2019-05-30T17:38:28.660Z,4.97
2019-05-30T17:40:59.833Z,5.30
2019-05-30T17:43:30.697Z,5.73
2019-05-30T17:46:01.641Z,4.57
2019-05-30T17:48:33.807Z,4.63
2019-05-30T17:51:05.190Z,5.00
2019-05-30T17:53:36.112Z,5.30
2019-05-30T17:56:07.047Z,5.10
2019-05-30T17:58:38.070Z,5.70
2019-05-30T18:01:09.076Z,4.83
2019-05-30T18:03:40.083Z,5.67
2019-05-30T18:06:11.104Z,5.20
2019-05-30T18:08:42.369Z,4.90
2019-05-30T18:11:13.325Z,6.30
2019-05-30T18:13:44.161Z,4.90
2019-05-30T18:16:14.972Z,5.35
2019-05-30T18:18:45.979Z,5.00
2019-05-30T18:21:17.024Z,4.63
2019-05-30T18:23:47.957Z,5.10
2019-05-30T18:26:18.829Z,5.73
2019-05-30T18:28:49.680Z,4.97
2019-05-30T18:31:21.813Z,4.87
2019-05-30T18:33:53.874Z,4.70
2019-05-30T18:36:24.876Z,4.20
2019-05-30T18:38:55.940Z,4.10
2019-05-30T18:41:26.886Z,4.30
2019-05-30T18:43:57.894Z,4.30
2019-05-30T18:46:31.239Z,4.33
2019-05-30T18:49:02.324Z,4.30
2019-05-30T18:51:33.469Z,4.67
2019-05-30T18:54:04.553Z,4.40
2019-05-30T18:56:36.898Z,4.00
2019-05-30T18:59:07.997Z,4.07
2019-05-30T19:01:39.229Z,4.07
2019-05-30T19:04:10.988Z,3.83
2019-05-30T19:06:43.794Z,3.97
2019-05-30T19:09:15.154Z,4.25
2019-05-30T19:11:45.948Z,3.90
2019-05-30T19:14:16.925Z,3.80
2019-05-30T19:16:47.748Z,4.27
2019-05-30T19:19:18.712Z,3.83
2019-05-30T19:21:49.634Z,3.93
2019-05-30T19:24:20.680Z,3.75
2019-05-30T19:26:51.958Z,2.90
2019-05-30T19:29:24.541Z,3.80
2019-05-30T19:31:55.731Z,3.33
2019-05-30T19:34:26.925Z,3.60
2019-05-30T19:36:58.221Z,3.00
2019-05-30T19:39:29.308Z,2.87
2019-05-30T19:42:00.258Z,3.23
2019-05-30T19:44:31.946Z,3.47
2019-05-30T19:47:03.230Z,2.83
2019-05-30T19:49:34.702Z,3.07
2019-05-30T19:52:05.816Z,3.07
2019-05-30T19:54:37.212Z,2.90
2019-05-30T19:57:09.285Z,3.00
2019-05-30T19:59:40.171Z,2.43
2019-05-30T20:02:11.073Z,3.10
2019-05-30T20:04:43.094Z,2.90
2019-05-30T20:07:14.032Z,2.60
2019-05-30T20:10:00.227Z,2.57
2019-05-30T20:12:17.893Z,2.60
2019-05-30T20:14:48.861Z,2.63
2019-05-30T20:17:19.856Z,2.67
2019-05-30T20:19:50.808Z,2.40
2019-05-30T20:22:22.001Z,2.40
2019-05-30T20:24:53.436Z,2.15
2019-05-30T20:27:25.915Z,2.40
2019-05-30T20:29:56.950Z,2.47
2019-05-30T20:32:27.916Z,2.20
2019-05-30T20:34:58.983Z,2.40
2019-05-30T20:37:30.154Z,2.30
2019-05-30T20:40:01.434Z,2.13
2019-05-30T20:42:32.480Z,2.77
2019-05-30T20:45:05.710Z,2.10
2019-05-30T20:47:38.460Z,2.40
2019-05-30T20:50:10.641Z,2.13
2019-05-30T20:52:43.638Z,2.70
2019-05-30T20:55:14.777Z,1.70
2019-05-30T20:57:46.723Z,2.10
2019-05-30T21:00:19.246Z,2.40
2019-05-30T21:02:50.256Z,2.03
2019-05-30T21:05:21.307Z,2.05
2019-05-30T21:07:53.006Z,2.40
2019-05-30T21:10:24.101Z,2.47
2019-05-30T21:12:55.743Z,2.10
2019-05-30T21:15:26.896Z,1.80
2019-05-30T21:17:58.263Z,2.23
2019-05-30T21:20:29.243Z,2.60
2019-05-30T21:23:00.319Z,1.90
2019-05-30T21:25:31.400Z,2.60
2019-05-30T21:28:02.270Z,2.47
2019-05-30T21:30:33.537Z,2.63
2019-05-30T21:33:04.515Z,2.30
2019-05-30T21:35:35.522Z,1.90
2019-05-30T21:38:06.404Z,2.57
2019-05-30T21:40:38.193Z,2.57
2019-05-30T21:43:10.202Z,1.73
2019-05-30T21:45:41.078Z,2.40
2019-05-30T21:48:11.956Z,2.20
2019-05-30T21:50:45.851Z,1.80
2019-05-30T21:53:15.821Z,2.10
2019-05-30T21:55:47.952Z,2.00
2019-05-30T21:58:19.087Z,1.90
2019-05-30T22:01:28.645Z,2.20
2019-05-30T22:03:59.768Z,2.20
2019-05-30T22:06:30.864Z,2.07
2019-05-30T22:09:03.420Z,3.03
2019-05-30T22:11:34.883Z,1.93
2019-05-30T22:14:05.929Z,1.90
2019-05-30T22:16:37.033Z,1.90
2019-05-30T22:19:07.940Z,2.13
2019-05-30T22:21:56.712Z,1.80
2019-05-30T22:24:30.680Z,1.83
2019-05-30T22:27:10.231Z,1.93
2019-05-30T22:29:42.220Z,2.40
2019-05-30T22:32:13.163Z,2.00
2019-05-30T22:34:44.701Z,2.40
2019-05-30T22:37:15.974Z,2.00
2019-05-30T22:39:48.959Z,2.70
2019-05-30T22:42:19.753Z,3.00
2019-05-30T22:44:50.946Z,2.50
2019-05-30T22:47:21.935Z,2.07
2019-05-30T22:49:53.183Z,1.80
2019-05-30T22:52:24.097Z,2.13
2019-05-30T22:54:55.152Z,2.17
2019-05-30T22:57:26.129Z,2.73
2019-05-30T22:59:57.154Z,2.30
2019-05-30T23:02:28.110Z,2.30
2019-05-30T23:05:00.251Z,3.07
2019-05-30T23:07:31.202Z,2.37
2019-05-30T23:10:02.088Z,2.30
2019-05-30T23:12:32.908Z,2.60
2019-05-30T23:15:03.694Z,2.53
2019-05-30T23:17:35.841Z,2.53
2019-05-30T23:20:07.019Z,2.30
2019-05-30T23:22:37.771Z,2.40
2019-05-30T23:25:09.089Z,2.67
2019-05-30T23:27:40.188Z,2.50
2019-05-30T23:30:12.504Z,2.10
2019-05-30T23:32:43.213Z,2.20
2019-05-30T23:35:14.094Z,2.50
2019-05-30T23:37:44.745Z,2.40
2019-05-30T23:40:16.091Z,2.33
2019-05-30T23:42:46.828Z,2.40
2019-05-30T23:45:17.712Z,2.40
2019-05-30T23:47:49.460Z,2.20
2019-05-30T23:50:20.588Z,2.27
2019-05-30T23:52:52.061Z,2.70
2019-05-30T23:55:23.138Z,2.40
2019-05-30T23:57:54.586Z,2.70
